createdAt,value
2018-06-03T00:00:08.610Z,30.17
2018-06-03T00:02:37.298Z,30.60
2018-06-03T00:05:06.047Z,29.17
2018-06-03T00:07:35.102Z,31.77
2018-06-03T00:10:03.515Z,33.67
2018-06-03T00:12:32.567Z,31.83
2018-06-03T00:15:01.675Z,31.17
2018-06-03T00:17:30.699Z,29.93
2018-06-03T00:20:01.507Z,35.60
2018-06-03T00:22:31.242Z,31.17
2018-06-03T00:24:59.667Z,35.70
2018-06-03T00:27:28.777Z,29.47
2018-06-03T00:29:57.879Z,33.13
2018-06-03T00:32:27.414Z,34.50
2018-06-03T00:34:56.447Z,30.67
2018-06-03T00:37:25.142Z,33.47
2018-06-03T00:39:54.198Z,36.80
2018-06-03T00:42:23.262Z,33.77
2018-06-03T00:44:52.286Z,37.00
2018-06-03T00:47:21.340Z,35.40
2018-06-03T00:49:50.046Z,35.13
2018-06-03T00:52:19.872Z,30.40
2018-06-03T00:54:49.660Z,33.57
2018-06-03T00:57:18.685Z,34.10
2018-06-03T00:59:47.711Z,36.13
2018-06-03T01:02:16.448Z,31.80
2018-06-03T01:04:46.259Z,36.43
2018-06-03T01:07:16.079Z,34.63
2018-06-03T01:09:45.881Z,33.57
2018-06-03T01:12:15.779Z,33.87
2018-06-03T01:14:44.804Z,35.10
2018-06-03T01:17:13.877Z,34.80
2018-06-03T01:19:42.912Z,34.90
2018-06-03T01:22:11.995Z,31.70
2018-06-03T01:24:41.053Z,30.13
2018-06-03T01:27:10.145Z,34.77
2018-06-03T01:29:39.247Z,33.57
2018-06-03T01:32:09.195Z,36.60
2018-06-03T01:34:39.049Z,32.70
2018-06-03T01:37:08.146Z,32.00
2018-06-03T01:39:37.225Z,33.67
2018-06-03T01:42:05.596Z,34.87
2018-06-03T01:44:34.643Z,33.27
2018-06-03T01:47:04.440Z,35.63
2018-06-03T01:49:33.478Z,36.60
2018-06-03T01:52:02.502Z,34.13
2018-06-03T01:54:31.532Z,39.10
2018-06-03T01:56:59.896Z,34.83
2018-06-03T01:59:28.950Z,36.73
2018-06-03T02:01:58.001Z,38.20
2018-06-03T02:04:27.036Z,34.00
2018-06-03T02:06:56.052Z,33.13
2018-06-03T02:09:25.112Z,38.27
2018-06-03T02:11:54.151Z,39.33
2018-06-03T02:14:23.207Z,37.90
2018-06-03T02:16:52.264Z,34.90
2018-06-03T02:19:22.102Z,40.03
2018-06-03T02:21:51.493Z,36.93
2018-06-03T02:24:21.049Z,35.00
2018-06-03T02:26:50.082Z,33.63
2018-06-03T02:29:19.931Z,38.93
2018-06-03T02:31:48.682Z,33.30
2018-06-03T02:34:17.709Z,41.70
2018-06-03T02:36:46.769Z,32.07
2018-06-03T02:39:15.824Z,37.13
2018-06-03T02:41:44.883Z,46.20
2018-06-03T02:44:13.912Z,37.10
2018-06-03T02:46:42.968Z,39.37
2018-06-03T02:49:12.010Z,34.67
2018-06-03T02:51:41.048Z,37.60
2018-06-03T02:54:10.074Z,38.10
2018-06-03T02:56:39.108Z,37.23
2018-06-03T02:59:08.906Z,41.53
2018-06-03T03:01:37.941Z,39.73
2018-06-03T03:04:07.183Z,39.03
2018-06-03T03:06:36.207Z,36.07
2018-06-03T03:09:05.380Z,36.37
2018-06-03T03:11:34.695Z,39.30
2018-06-03T03:14:03.820Z,41.43
2018-06-03T03:16:32.917Z,39.73
2018-06-03T03:19:01.971Z,37.57
2018-06-03T03:21:31.962Z,43.03
2018-06-03T03:24:01.015Z,41.63
2018-06-03T03:26:30.115Z,39.40
2018-06-03T03:28:59.927Z,41.27
2018-06-03T03:31:28.685Z,44.37
2018-06-03T03:33:58.499Z,42.23
2018-06-03T03:36:28.335Z,37.50
2018-06-03T03:38:57.670Z,42.63
2018-06-03T03:41:26.851Z,44.67
2018-06-03T03:43:55.858Z,43.33
2018-06-03T03:46:25.128Z,40.50
2018-06-03T03:48:54.904Z,42.73
2018-06-03T03:51:24.744Z,37.67
2018-06-03T03:53:53.782Z,39.53
2018-06-03T03:56:26.190Z,45.33
2018-06-03T03:58:55.996Z,40.97
2018-06-03T04:01:25.818Z,43.60
2018-06-03T04:03:55.624Z,41.80
2018-06-03T04:06:25.452Z,40.83
2018-06-03T04:08:55.236Z,43.20
2018-06-03T04:11:25.045Z,39.03
2018-06-03T04:13:54.841Z,40.93
2018-06-03T04:16:23.869Z,40.73
2018-06-03T04:18:52.900Z,37.60
2018-06-03T04:21:21.929Z,35.93
2018-06-03T04:23:50.978Z,38.00
2018-06-03T04:26:20.009Z,37.07
2018-06-03T04:28:49.071Z,42.07
2018-06-03T04:31:18.102Z,38.87
2018-06-03T04:33:47.133Z,37.90
2018-06-03T04:36:16.235Z,38.57
2018-06-03T04:38:46.041Z,35.97
2018-06-03T04:41:15.110Z,36.33
2018-06-03T04:43:45.269Z,33.07
2018-06-03T04:46:14.344Z,37.03
2018-06-03T04:48:44.160Z,33.57
2018-06-03T04:51:13.270Z,36.17
2018-06-03T04:53:42.347Z,34.03
2018-06-03T04:56:11.598Z,34.87
2018-06-03T04:58:40.660Z,32.87
2018-06-03T05:01:09.726Z,33.00
2018-06-03T05:03:39.515Z,35.00
2018-06-03T05:06:09.318Z,32.27
2018-06-03T05:08:38.024Z,32.63
2018-06-03T05:11:07.821Z,35.87
2018-06-03T05:13:36.857Z,32.40
2018-06-03T05:16:05.565Z,30.57
2018-06-03T05:18:34.614Z,33.07
2018-06-03T05:21:04.407Z,34.17
2018-06-03T05:23:33.443Z,28.93
2018-06-03T05:26:02.132Z,33.70
2018-06-03T05:28:31.178Z,34.80
2018-06-03T05:31:00.989Z,33.40
2018-06-03T05:33:30.071Z,35.10
2018-06-03T05:35:59.102Z,32.40
2018-06-03T05:38:28.122Z,33.43
2018-06-03T05:40:57.157Z,37.97
2018-06-03T05:43:26.258Z,32.23
2018-06-03T05:45:55.306Z,29.60
2018-06-03T05:48:24.388Z,40.30
2018-06-03T05:50:53.478Z,34.10
2018-06-03T05:53:22.571Z,36.83
2018-06-03T05:55:51.737Z,33.10
2018-06-03T05:58:21.605Z,30.27
2018-06-03T06:00:50.380Z,30.43
2018-06-03T06:03:19.670Z,32.80
2018-06-03T06:05:48.758Z,32.37
2018-06-03T06:08:18.201Z,39.30
2018-06-03T06:10:47.259Z,35.30
2018-06-03T06:13:16.295Z,31.90
2018-06-03T06:15:45.386Z,31.40
2018-06-03T06:18:14.391Z,36.33
2018-06-03T06:20:43.103Z,32.40
2018-06-03T06:23:12.922Z,30.57
2018-06-03T06:25:42.253Z,38.00
2018-06-03T06:28:11.289Z,32.37
2018-06-03T06:30:39.992Z,36.90
2018-06-03T06:33:09.049Z,32.87
2018-06-03T06:35:38.074Z,30.03
2018-06-03T06:38:07.864Z,30.70
2018-06-03T06:40:36.919Z,29.33
2018-06-03T06:43:05.971Z,30.20
2018-06-03T06:45:35.485Z,30.80
2018-06-03T06:48:04.212Z,32.77
2018-06-03T06:50:33.393Z,31.53
2018-06-03T06:53:02.210Z,29.87
2018-06-03T06:55:31.268Z,32.23
2018-06-03T06:58:00.323Z,31.47
2018-06-03T07:00:30.485Z,32.90
2018-06-03T07:02:59.537Z,28.37
2018-06-03T07:05:28.599Z,28.03
2018-06-03T07:07:57.673Z,28.20
2018-06-03T07:10:26.767Z,28.60
2018-06-03T07:12:55.798Z,30.00
2018-06-03T07:15:24.820Z,34.13
2018-06-03T07:17:54.619Z,27.70
2018-06-03T07:20:23.702Z,28.70
2018-06-03T07:22:52.748Z,29.90
2018-06-03T07:25:21.779Z,32.33
2018-06-03T07:27:50.818Z,31.37
2018-06-03T07:30:20.295Z,31.30
2018-06-03T07:32:49.355Z,35.30
2018-06-03T07:35:18.431Z,34.70
2018-06-03T07:37:48.462Z,32.73
2018-06-03T07:40:17.143Z,29.27
2018-06-03T07:42:46.196Z,34.33
2018-06-03T07:45:15.277Z,32.30
2018-06-03T07:47:44.371Z,29.93
2018-06-03T07:50:14.205Z,28.53
2018-06-03T07:52:44.057Z,27.40
2018-06-03T07:55:13.102Z,31.43
2018-06-03T07:57:42.916Z,27.33
2018-06-03T08:00:12.747Z,32.33
2018-06-03T08:02:41.826Z,31.10
2018-06-03T08:05:11.772Z,31.17
2018-06-03T08:07:40.903Z,30.33
2018-06-03T08:10:09.949Z,29.20
2018-06-03T08:12:39.825Z,25.60
2018-06-03T08:15:08.954Z,31.17
2018-06-03T08:17:38.046Z,26.93
2018-06-03T08:20:07.249Z,27.00
2018-06-03T08:22:36.318Z,28.90
2018-06-03T08:25:05.336Z,26.80
2018-06-03T08:27:34.435Z,31.00
2018-06-03T08:30:03.559Z,29.63
2018-06-03T08:32:32.616Z,27.80
2018-06-03T08:35:01.667Z,30.67
2018-06-03T08:37:30.879Z,28.67
2018-06-03T08:40:00.677Z,31.50
2018-06-03T08:42:29.387Z,34.27
2018-06-03T08:44:59.174Z,29.33
2018-06-03T08:48:00.470Z,34.67
2018-06-03T08:50:29.230Z,34.03
2018-06-03T08:52:58.345Z,32.53
2018-06-03T08:55:27.206Z,32.97
2018-06-03T08:57:56.313Z,37.67
2018-06-03T09:00:25.444Z,33.57
2018-06-03T09:02:54.571Z,33.07
2018-06-03T09:05:23.666Z,37.50
2018-06-03T09:07:53.960Z,35.63
2018-06-03T09:10:22.814Z,36.13
2018-06-03T09:12:51.851Z,40.03
2018-06-03T09:15:20.626Z,36.13
2018-06-03T09:17:49.808Z,35.93
2018-06-03T09:20:19.003Z,32.87
2018-06-03T09:22:47.841Z,34.30
2018-06-03T09:25:16.987Z,34.33
2018-06-03T09:27:45.837Z,35.67
2018-06-03T09:30:14.990Z,30.97
2018-06-03T09:32:44.152Z,31.03
2018-06-03T09:35:13.012Z,27.60
2018-06-03T09:37:41.784Z,29.07
2018-06-03T09:40:10.634Z,32.77
2018-06-03T09:42:39.215Z,36.47
2018-06-03T09:45:08.419Z,33.70
2018-06-03T09:47:37.224Z,39.83
2018-06-03T09:50:06.167Z,34.60
2018-06-03T09:52:35.269Z,35.47
2018-06-03T09:55:04.155Z,33.97
2018-06-03T09:57:33.235Z,46.00
2018-06-03T10:00:02.676Z,36.43
2018-06-03T10:02:31.791Z,36.53
2018-06-03T10:05:01.438Z,34.37
2018-06-03T10:07:30.373Z,29.70
2018-06-03T10:09:59.182Z,33.37
2018-06-03T10:12:28.022Z,28.83
2018-06-03T10:14:56.841Z,24.93
2018-06-03T10:17:25.727Z,25.37
2018-06-03T10:19:54.784Z,25.37
2018-06-03T10:22:23.825Z,24.73
2018-06-03T10:24:52.626Z,25.43
2018-06-03T10:27:21.559Z,25.37
2018-06-03T10:29:50.437Z,30.20
2018-06-03T10:32:19.225Z,24.10
2018-06-03T10:34:48.158Z,24.20
2018-06-03T10:37:16.945Z,26.10
2018-06-03T10:39:45.941Z,24.13
2018-06-03T10:42:14.865Z,23.30
2018-06-03T10:44:43.932Z,27.37
2018-06-03T10:47:13.039Z,25.53
2018-06-03T10:49:42.226Z,21.73
2018-06-03T10:52:11.313Z,21.57
2018-06-03T10:54:40.370Z,25.57
2018-06-03T10:57:10.536Z,26.07
2018-06-03T10:59:39.987Z,25.40
2018-06-03T11:02:08.973Z,26.43
2018-06-03T11:04:37.789Z,26.67
2018-06-03T11:07:06.806Z,25.80
2018-06-03T11:09:35.669Z,21.70
2018-06-03T11:12:04.580Z,21.27
2018-06-03T11:14:33.363Z,25.23
2018-06-03T11:17:02.162Z,25.50
2018-06-03T11:19:31.052Z,24.60
2018-06-03T11:21:59.845Z,25.23
2018-06-03T11:24:28.721Z,27.93
2018-06-03T11:26:57.317Z,27.07
2018-06-03T11:29:26.245Z,25.27
2018-06-03T11:31:55.287Z,23.60
2018-06-03T11:34:24.262Z,23.07
2018-06-03T11:36:53.583Z,26.40
2018-06-03T11:39:22.978Z,22.30
2018-06-03T11:41:52.275Z,21.90
2018-06-03T11:44:21.469Z,20.57
2018-06-03T11:46:50.742Z,19.77
2018-06-03T11:49:19.710Z,21.87
2018-06-03T11:51:48.778Z,21.50
2018-06-03T11:54:18.898Z,20.20
2018-06-03T11:56:59.253Z,21.20
2018-06-03T11:59:46.843Z,19.90
2018-06-03T12:02:18.084Z,19.07
2018-06-03T12:04:47.252Z,16.57
2018-06-03T12:07:16.100Z,17.83
2018-06-03T12:09:44.968Z,17.13
2018-06-03T12:12:14.107Z,16.70
2018-06-03T12:14:42.972Z,13.73
2018-06-03T12:17:11.757Z,12.03
2018-06-03T12:19:40.558Z,15.00
2018-06-03T12:22:09.452Z,12.70
2018-06-03T12:24:38.292Z,13.73
2018-06-03T12:27:07.040Z,12.83
2018-06-03T12:29:36.198Z,12.23
2018-06-03T12:32:05.053Z,11.07
2018-06-03T12:34:33.841Z,10.37
2018-06-03T12:37:03.091Z,12.20
2018-06-03T12:39:32.377Z,11.90
2018-06-03T12:42:01.715Z,12.80
2018-06-03T12:44:30.733Z,11.70
2018-06-03T12:46:59.954Z,13.23
2018-06-03T12:49:29.306Z,9.57
2018-06-03T12:51:58.445Z,10.07
2018-06-03T12:54:27.430Z,10.90
2018-06-03T12:56:56.736Z,9.27
2018-06-03T12:59:25.345Z,7.97
2018-06-03T13:01:53.928Z,8.53
2018-06-03T13:04:22.648Z,9.20
2018-06-03T13:06:51.505Z,9.87
2018-06-03T13:09:20.049Z,10.30
2018-06-03T13:11:48.750Z,7.47
2018-06-03T13:14:17.625Z,8.07
2018-06-03T13:16:46.538Z,8.53
2018-06-03T13:19:15.992Z,7.47
2018-06-03T13:21:44.796Z,7.50
2018-06-03T13:24:13.946Z,9.67
2018-06-03T13:26:43.204Z,8.87
2018-06-03T13:29:12.237Z,10.83
2018-06-03T13:31:41.242Z,7.23
2018-06-03T13:34:10.242Z,8.57
2018-06-03T13:36:39.631Z,7.67
2018-06-03T13:39:09.043Z,7.07
2018-06-03T13:41:38.424Z,6.37
2018-06-03T13:44:07.276Z,7.83
2018-06-03T13:46:36.337Z,8.00
2018-06-03T13:49:05.598Z,6.80
2018-06-03T13:51:34.395Z,5.70
2018-06-03T13:54:03.170Z,7.27
2018-06-03T13:56:32.312Z,6.23
2018-06-03T13:59:01.105Z,6.33
2018-06-03T14:01:29.888Z,4.77
2018-06-03T14:03:58.688Z,6.53
2018-06-03T14:06:27.808Z,5.93
2018-06-03T14:08:56.607Z,6.27
2018-06-03T14:11:25.501Z,5.17
2018-06-03T14:13:54.909Z,7.07
2018-06-03T14:16:23.653Z,6.33
2018-06-03T14:18:53.107Z,4.53
2018-06-03T14:21:21.892Z,5.47
2018-06-03T14:23:50.838Z,6.80
2018-06-03T14:26:20.077Z,5.13
2018-06-03T14:28:48.967Z,5.63
2018-06-03T14:31:18.586Z,5.47
2018-06-03T14:33:47.877Z,5.30
2018-06-03T14:36:16.775Z,5.23
2018-06-03T14:38:45.827Z,6.73
2018-06-03T14:41:15.077Z,5.57
2018-06-03T14:43:43.980Z,6.23
2018-06-03T14:46:13.968Z,6.00
2018-06-03T14:48:42.851Z,5.23
2018-06-03T14:51:11.611Z,5.43
2018-06-03T14:53:40.425Z,4.57
2018-06-03T14:56:09.165Z,4.17
2018-06-03T14:58:37.955Z,5.33
2018-06-03T15:01:07.058Z,4.90
2018-06-03T15:03:35.859Z,4.87
2018-06-03T15:06:04.623Z,6.57
2018-06-03T15:08:33.751Z,4.03
2018-06-03T15:11:02.841Z,7.00
2018-06-03T15:13:32.011Z,6.17
2018-06-03T15:16:00.603Z,6.47
2018-06-03T15:18:29.546Z,6.07
2018-06-03T15:20:58.487Z,6.00
2018-06-03T15:23:28.250Z,18.50
2018-06-03T15:25:57.830Z,16.30
2018-06-03T15:28:27.065Z,9.97
2018-06-03T15:30:56.027Z,9.07
2018-06-03T15:33:25.004Z,7.83
2018-06-03T15:35:53.930Z,8.17
2018-06-03T15:38:22.828Z,7.13
2018-06-03T15:40:52.140Z,7.00
2018-06-03T15:43:20.958Z,6.53
2018-06-03T15:45:49.940Z,8.57
2018-06-03T15:48:18.827Z,8.53
2018-06-03T15:50:48.049Z,7.40
2018-06-03T15:53:16.850Z,8.60
2018-06-03T15:55:45.976Z,10.70
2018-06-03T15:58:14.783Z,7.57
2018-06-03T16:00:43.860Z,9.17
2018-06-03T16:03:12.864Z,9.57
2018-06-03T16:05:42.109Z,9.47
2018-06-03T16:08:11.241Z,9.93
2018-06-03T16:10:40.368Z,9.63
2018-06-03T16:13:09.420Z,12.10
2018-06-03T16:15:38.336Z,11.67
2018-06-03T16:18:07.472Z,12.97
2018-06-03T16:20:36.378Z,11.90
2018-06-03T16:23:05.348Z,15.30
2018-06-03T16:25:35.246Z,10.97
2018-06-03T16:28:04.208Z,12.30
2018-06-03T16:30:33.214Z,12.87
2018-06-03T16:33:02.289Z,11.03
2018-06-03T16:35:31.895Z,12.63
2018-06-03T16:38:00.915Z,14.23
2018-06-03T16:40:29.798Z,12.00
2018-06-03T16:42:58.859Z,13.40
2018-06-03T16:45:27.747Z,14.10
2018-06-03T16:47:56.506Z,12.27
2018-06-03T16:50:26.028Z,11.77
2018-06-03T16:52:56.863Z,13.27
2018-06-03T16:55:25.997Z,14.73
2018-06-03T16:57:54.861Z,20.07
2018-06-03T17:00:24.153Z,15.50
2018-06-03T17:02:53.046Z,19.67
2018-06-03T17:05:21.836Z,13.63
2018-06-03T17:07:50.635Z,13.23
2018-06-03T17:10:20.266Z,13.07
2018-06-03T17:12:49.113Z,14.30
2018-06-03T17:15:18.431Z,13.80
2018-06-03T17:17:47.394Z,13.43
2018-06-03T17:20:16.319Z,11.63
2018-06-03T17:22:45.479Z,14.23
2018-06-03T17:25:14.828Z,11.73
2018-06-03T17:27:43.918Z,13.60
2018-06-03T17:30:12.960Z,12.50
2018-06-03T17:32:42.110Z,11.33
2018-06-03T17:35:11.276Z,13.67
2018-06-03T17:37:40.084Z,11.60
2018-06-03T17:40:08.854Z,11.70
2018-06-03T17:42:38.010Z,10.60
2018-06-03T17:45:07.494Z,12.40
2018-06-03T17:47:36.326Z,14.47
2018-06-03T17:50:05.934Z,12.90
2018-06-03T17:52:35.033Z,10.93
2018-06-03T17:55:04.569Z,9.73
2018-06-03T17:57:33.731Z,10.93
2018-06-03T18:00:03.286Z,10.87
2018-06-03T18:02:32.135Z,12.03
2018-06-03T18:05:01.201Z,11.07
2018-06-03T18:07:30.035Z,12.67
2018-06-03T18:09:59.191Z,10.67
2018-06-03T18:12:28.108Z,11.23
2018-06-03T18:14:57.141Z,12.63
2018-06-03T18:17:26.222Z,11.30
2018-06-03T18:19:55.501Z,13.13
2018-06-03T18:22:24.819Z,13.40
2018-06-03T18:24:53.901Z,12.13
2018-06-03T18:27:22.993Z,14.53
2018-06-03T18:29:52.002Z,13.10
2018-06-03T18:32:20.988Z,14.17
2018-06-03T18:34:50.422Z,13.07
2018-06-03T18:37:19.408Z,14.47
2018-06-03T18:39:48.387Z,14.90
2018-06-03T18:42:17.554Z,12.93
2018-06-03T18:44:46.390Z,15.07
2018-06-03T18:47:15.632Z,13.97
2018-06-03T18:49:44.559Z,12.13
2018-06-03T18:52:13.629Z,12.77
2018-06-03T18:54:42.551Z,13.10
2018-06-03T18:57:11.607Z,14.73
2018-06-03T18:59:40.595Z,14.27
2018-06-03T19:02:09.794Z,14.30
2018-06-03T19:04:38.920Z,17.10
2018-06-03T19:07:08.097Z,14.57
2018-06-03T19:09:37.644Z,14.17
2018-06-03T19:12:06.536Z,15.23
2018-06-03T19:14:35.607Z,11.83
2018-06-03T19:17:04.723Z,18.23
2018-06-03T19:19:33.953Z,15.10
2018-06-03T19:22:03.019Z,15.67
2018-06-03T19:24:32.041Z,13.80
2018-06-03T19:27:01.001Z,17.60
2018-06-03T19:29:29.951Z,15.03
2018-06-03T19:31:58.877Z,17.13
2018-06-03T19:34:27.850Z,14.60
2018-06-03T19:36:57.456Z,12.47
2018-06-03T19:39:26.281Z,13.43
2018-06-03T19:41:55.170Z,13.07
2018-06-03T19:44:24.059Z,15.20
2018-06-03T19:46:52.942Z,18.57
2018-06-03T19:49:21.879Z,17.33
2018-06-03T19:51:50.691Z,14.67
2018-06-03T19:54:19.562Z,12.53
2018-06-03T19:56:48.373Z,11.83
2018-06-03T19:59:17.230Z,15.33
2018-06-03T20:01:46.178Z,14.27
2018-06-03T20:04:15.213Z,13.87
2018-06-03T20:06:44.456Z,13.07
2018-06-03T20:09:13.441Z,13.13
2018-06-03T20:11:43.417Z,12.90
2018-06-03T20:14:12.686Z,14.23
2018-06-03T20:16:41.751Z,12.80
2018-06-03T20:19:11.114Z,12.60
2018-06-03T20:21:40.354Z,12.97
2018-06-03T20:24:09.685Z,15.23
2018-06-03T20:26:38.669Z,15.47
2018-06-03T20:29:07.892Z,15.20
2018-06-03T20:31:36.845Z,18.80
2018-06-03T20:34:06.104Z,14.20
2018-06-03T20:36:35.000Z,14.07
2018-06-03T20:39:06.247Z,14.17
2018-06-03T20:41:35.327Z,16.33
2018-06-03T20:44:04.205Z,15.17
2018-06-03T20:46:33.203Z,20.33
2018-06-03T20:49:02.079Z,15.90
2018-06-03T20:51:30.966Z,14.87
2018-06-03T20:53:59.827Z,16.80
2018-06-03T20:56:28.996Z,14.90
2018-06-03T20:58:57.842Z,17.57
2018-06-03T21:01:26.741Z,20.07
2018-06-03T21:03:55.603Z,17.50
2018-06-03T21:06:24.730Z,17.60
2018-06-03T21:08:53.959Z,17.23
2018-06-03T21:11:23.020Z,18.37
2018-06-03T21:13:51.967Z,18.27
2018-06-03T21:16:20.814Z,15.73
2018-06-03T21:18:50.095Z,16.63
2018-06-03T21:21:18.751Z,17.33
2018-06-03T21:23:47.840Z,17.23
2018-06-03T21:26:16.632Z,14.70
2018-06-03T21:28:45.461Z,18.03
2018-06-03T21:31:14.282Z,19.30
2018-06-03T21:33:43.147Z,19.23
2018-06-03T21:36:11.949Z,18.90
2018-06-03T21:38:41.415Z,20.63
2018-06-03T21:41:10.417Z,18.07
2018-06-03T21:43:39.211Z,19.13
2018-06-03T21:46:07.891Z,18.47
2018-06-03T21:48:36.581Z,16.13
2018-06-03T21:51:05.452Z,17.40
2018-06-03T21:53:34.255Z,15.93
2018-06-03T21:56:03.065Z,16.87
2018-06-03T21:58:32.310Z,22.77
2018-06-03T22:01:01.337Z,19.57
2018-06-03T22:03:30.179Z,17.30
2018-06-03T22:05:59.099Z,18.70
2018-06-03T22:08:28.453Z,18.50
2018-06-03T22:10:57.808Z,15.37
2018-06-03T22:13:26.644Z,16.00
2018-06-03T22:15:55.494Z,17.67
2018-06-03T22:18:24.384Z,18.00
2018-06-03T22:20:53.430Z,16.37
2018-06-03T22:23:22.195Z,16.50
2018-06-03T22:25:51.007Z,16.13
2018-06-03T22:28:20.104Z,16.20
2018-06-03T22:30:48.934Z,15.27
2018-06-03T22:33:17.703Z,16.50
2018-06-03T22:35:46.532Z,16.43
2018-06-03T22:38:15.406Z,13.40
2018-06-03T22:40:43.947Z,16.57
2018-06-03T22:43:12.632Z,15.87
2018-06-03T22:45:41.499Z,17.83
2018-06-03T22:48:10.612Z,15.53
2018-06-03T22:50:39.831Z,14.77
2018-06-03T22:53:08.835Z,19.33
2018-06-03T22:55:44.227Z,17.07
2018-06-03T22:58:13.078Z,16.33
2018-06-03T23:00:42.269Z,18.93
2018-06-03T23:03:16.298Z,15.43
2018-06-03T23:05:45.176Z,17.13
2018-06-03T23:08:14.307Z,18.83
2018-06-03T23:10:43.158Z,18.40
2018-06-03T23:13:12.381Z,18.30
2018-06-03T23:15:41.596Z,16.60
2018-06-03T23:18:10.451Z,17.63
2018-06-03T23:20:39.682Z,18.87
2018-06-03T23:23:08.849Z,15.87
2018-06-03T23:25:37.464Z,16.07
2018-06-03T23:28:06.165Z,17.60
2018-06-03T23:30:34.957Z,17.33
2018-06-03T23:33:04.182Z,16.77
2018-06-03T23:35:32.903Z,17.67
2018-06-03T23:38:02.321Z,16.67
2018-06-03T23:40:31.069Z,16.90
2018-06-03T23:42:59.827Z,18.33
2018-06-03T23:45:28.653Z,15.33
2018-06-03T23:47:57.452Z,18.83
2018-06-03T23:50:26.201Z,15.03
2018-06-03T23:52:54.968Z,17.43
2018-06-03T23:55:23.890Z,16.37
2018-06-03T23:57:52.778Z,16.70
